Time;durP1;ratioP1;P1;durP2;ratioP2;P2;SDS_P1;SDS_P2;PMS_P1;PMS_P2;Temp;Humidity;BMP_temperature;BMP_pressure;BME280_temperature;BME280_humidity;BME280_pressure;Samples;Min_cycle;Max_cycle;Signal;HPM_P1;HPM_P2
2021/09/25 00:00:27;;;;;;;1.80;0.90;;;16.90;99.90;;;;;;4897540;29;20448;-68
2021/09/25 00:02:55;;;;;;;0.90;0.60;;;16.90;99.90;;;;;;4896993;29;20920;-68
2021/09/25 00:05:26;;;;;;;6.30;1.23;;;16.90;99.90;;;;;;4897554;29;20460;-68
2021/09/25 00:07:54;;;;;;;2.33;0.97;;;16.90;99.90;;;;;;4895617;29;20538;-67
2021/09/25 00:10:24;;;;;;;0.90;0.50;;;16.90;99.90;;;;;;4897449;29;20426;-67
2021/09/25 00:12:54;;;;;;;1.27;0.70;;;16.90;99.90;;;;;;4897565;29;20553;-68
2021/09/25 00:15:23;;;;;;;0.90;0.50;;;16.90;99.90;;;;;;4897362;29;20397;-68
2021/09/25 00:17:52;;;;;;;0.90;0.60;;;16.90;99.90;;;;;;4897129;29;20430;-68
2021/09/25 00:20:20;;;;;;;2.23;0.90;;;16.90;99.90;;;;;;4897145;29;20496;-67
2021/09/25 00:22:48;;;;;;;0.90;0.60;;;16.90;99.90;;;;;;4897319;29;20463;-68
2021/09/25 00:25:16;;;;;;;0.87;0.50;;;16.90;99.90;;;;;;4897114;29;20434;-69
2021/09/25 00:27:46;;;;;;;2.17;1.63;;;16.90;99.90;;;;;;4896699;29;20456;-69
2021/09/25 00:30:15;;;;;;;1.20;1.03;;;16.90;99.90;;;;;;4896750;29;20397;-68
2021/09/25 00:32:44;;;;;;;1.00;0.60;;;16.90;99.90;;;;;;4896860;29;20547;-69
2021/09/25 00:35:12;;;;;;;1.10;0.50;;;16.90;99.90;;;;;;4897074;29;20435;-68
2021/09/25 00:37:41;;;;;;;1.70;1.20;;;16.90;99.90;;;;;;4896719;29;20712;-67
2021/09/25 00:40:12;;;;;;;1.43;1.33;;;16.90;99.90;;;;;;4896936;29;20926;-69
2021/09/25 00:42:40;;;;;;;0.90;0.60;;;16.90;99.90;;;;;;4897255;29;20461;-68
2021/09/25 00:45:11;;;;;;;1.00;0.60;;;16.90;99.90;;;;;;4895471;29;20799;-68
2021/09/25 00:47:39;;;;;;;1.20;0.70;;;16.90;99.90;;;;;;4896604;29;20485;-67
2021/09/25 00:50:09;;;;;;;0.90;0.50;;;16.90;99.90;;;;;;4896791;29;20764;-68
2021/09/25 00:52:37;;;;;;;1.20;0.80;;;16.90;99.90;;;;;;4896909;29;20421;-68
2021/09/25 00:55:07;;;;;;;2.80;1.70;;;16.90;99.90;;;;;;4896541;29;20841;-68
2021/09/25 00:57:35;;;;;;;2.93;0.70;;;17.00;99.90;;;;;;4895249;29;20534;-68
2021/09/25 01:00:05;;;;;;;1.63;1.27;;;17.00;99.90;;;;;;4896420;29;20408;-68
2021/09/25 01:02:35;;;;;;;1.30;1.00;;;17.00;99.90;;;;;;4896447;29;20864;-68
2021/09/25 01:05:05;;;;;;;2.43;1.37;;;17.00;99.90;;;;;;4896223;29;20402;-68
2021/09/25 01:07:33;;;;;;;2.43;0.80;;;17.00;99.90;;;;;;4896271;29;20538;-67
2021/09/25 01:10:02;;;;;;;1.17;1.00;;;17.00;99.90;;;;;;4896187;29;20477;-67
2021/09/25 01:12:30;;;;;;;0.90;0.40;;;17.00;99.90;;;;;;4896452;29;20445;-67
2021/09/25 01:14:58;;;;;;;0.90;0.50;;;17.00;99.90;;;;;;4895804;29;20419;-66
2021/09/25 01:17:26;;;;;;;1.10;0.80;;;17.00;99.90;;;;;;4896200;29;20412;-69
2021/09/25 01:19:56;;;;;;;1.20;0.60;;;17.00;99.90;;;;;;4896227;29;20889;-67
2021/09/25 01:22:25;;;;;;;1.10;0.77;;;16.90;99.90;;;;;;4896064;29;20417;-68
2021/09/25 01:24:54;;;;;;;1.33;1.03;;;16.90;99.90;;;;;;4896012;29;20915;-67
2021/09/25 01:27:22;;;;;;;1.63;1.23;;;16.90;99.90;;;;;;4895669;29;20988;-67
2021/09/25 01:29:50;;;;;;;1.67;0.63;;;16.90;99.90;;;;;;4896173;29;20405;-67
2021/09/25 01:32:18;;;;;;;2.43;0.70;;;16.90;99.90;;;;;;4895954;29;20956;-67
2021/09/25 01:34:47;;;;;;;0.90;0.50;;;16.90;99.90;;;;;;4920720;23;20465;-78
2021/09/25 01:37:15;;;;;;;2.40;0.70;;;16.90;99.90;;;;;;4899379;29;20411;-78
2021/09/25 01:39:44;;;;;;;1.07;0.70;;;16.90;99.90;;;;;;4899708;29;20437;-78
2021/09/25 01:42:13;;;;;;;1.37;1.27;;;16.90;99.90;;;;;;4900138;29;20409;-79
2021/09/25 01:44:41;;;;;;;1.97;1.53;;;16.90;99.90;;;;;;4900695;29;20457;-78
2021/09/25 01:47:09;;;;;;;1.90;1.80;;;16.90;99.90;;;;;;4899843;29;20846;-79
2021/09/25 01:49:48;;;;;;;0.90;0.50;;;16.90;99.90;;;;;;4899421;29;20390;-78
2021/09/25 01:52:18;;;;;;;2.07;0.70;;;16.90;99.90;;;;;;4899747;29;20405;-78
2021/09/25 01:54:48;;;;;;;2.63;2.27;;;16.90;99.90;;;;;;4899864;29;20424;-78
2021/09/25 01:57:16;;;;;;;2.20;0.73;;;16.90;99.90;;;;;;4900876;29;20504;-77
2021/09/25 01:59:44;;;;;;;1.23;0.73;;;16.90;99.90;;;;;;4898780;29;20539;-78
2021/09/25 02:02:13;;;;;;;1.30;0.77;;;16.90;99.90;;;;;;4899578;29;20419;-78
2021/09/25 02:04:46;;;;;;;1.10;0.90;;;16.90;99.90;;;;;;4898891;29;20476;-79
2021/09/25 02:07:16;;;;;;;4.30;1.20;;;16.90;99.90;;;;;;4898862;29;20458;-78
2021/09/25 02:09:44;;;;;;;1.23;1.13;;;16.90;99.90;;;;;;4898393;29;20466;-78
2021/09/25 02:12:14;;;;;;;2.20;0.90;;;16.90;99.90;;;;;;4898296;29;20400;-78
2021/09/25 02:14:43;;;;;;;1.37;1.10;;;16.90;99.90;;;;;;4898544;29;20450;-78
2021/09/25 02:17:12;;;;;;;1.80;1.20;;;16.90;99.90;;;;;;4898043;29;20500;-78
2021/09/25 02:19:43;;;;;;;1.27;1.17;;;16.90;99.90;;;;;;4898497;29;20397;-78
2021/09/25 02:22:11;;;;;;;2.37;0.57;;;16.90;99.90;;;;;;4898464;29;20404;-78
2021/09/25 02:24:40;;;;;;;1.30;0.73;;;16.80;99.90;;;;;;4896834;29;20459;-78
2021/09/25 02:27:08;;;;;;;2.03;1.10;;;16.80;99.90;;;;;;4897054;29;20409;-79
2021/09/25 02:29:38;;;;;;;0.90;0.50;;;16.80;99.90;;;;;;4898386;29;20392;-79
2021/09/25 02:32:06;;;;;;;1.60;1.00;;;16.80;99.90;;;;;;4898307;29;20385;-78
2021/09/25 02:34:35;;;;;;;0.90;0.50;;;16.90;99.90;;;;;;4898017;29;20859;-78
2021/09/25 02:37:05;;;;;;;2.30;1.07;;;16.90;99.90;;;;;;4898437;29;20422;-78
2021/09/25 02:39:34;;;;;;;1.63;1.17;;;16.90;99.90;;;;;;4899688;29;20975;-79
2021/09/25 02:42:03;;;;;;;1.03;0.63;;;16.80;99.90;;;;;;4900284;29;20431;-79
2021/09/25 02:44:31;;;;;;;1.67;0.70;;;16.80;99.90;;;;;;4900373;29;20468;-79
2021/09/25 02:47:00;;;;;;;1.10;0.80;;;16.70;99.90;;;;;;4899540;29;20426;-79
2021/09/25 02:49:28;;;;;;;1.87;0.50;;;16.70;1.00;;;;;;4898509;29;20470;-78
2021/09/25 02:51:56;;;;;;;1.63;0.93;;;16.70;1.00;;;;;;4900650;29;20423;-78
2021/09/25 02:54:24;;;;;;;1.67;0.93;;;16.70;1.00;;;;;;4904084;29;20469;-79
2021/09/25 02:56:52;;;;;;;1.00;0.70;;;16.70;1.00;;;;;;4906068;29;20457;-79
2021/09/25 02:59:20;;;;;;;1.07;0.60;;;16.70;99.90;;;;;;4900494;29;20449;-79
2021/09/25 03:01:48;;;;;;;0.93;0.67;;;16.70;1.00;;;;;;4902250;29;20429;-78
2021/09/25 03:04:19;;;;;;;1.20;0.80;;;16.70;1.00;;;;;;4901057;29;20561;-79
2021/09/25 03:06:48;;;;;;;1.53;0.80;;;16.80;1.00;;;;;;4900073;29;20398;-79
2021/09/25 03:09:16;;;;;;;5.70;2.00;;;16.70;1.00;;;;;;4899568;29;20512;-79
2021/09/25 03:11:44;;;;;;;1.20;0.73;;;16.70;1.00;;;;;;4899692;29;20484;-79
2021/09/25 03:14:12;;;;;;;3.57;1.37;;;16.70;1.00;;;;;;4898646;29;20437;-79
2021/09/25 03:16:40;;;;;;;0.90;0.67;;;16.70;1.00;;;;;;4898963;29;20419;-79
2021/09/25 03:19:08;;;;;;;1.30;0.83;;;16.70;1.00;;;;;;4898220;29;20438;-80
2021/09/25 03:21:39;;;;;;;1.00;0.90;;;16.70;1.00;;;;;;4899423;29;20464;-79
2021/09/25 03:24:08;;;;;;;0.80;0.40;;;16.80;1.00;;;;;;4900525;29;20457;-79
2021/09/25 03:26:36;;;;;;;0.90;0.70;;;16.70;1.00;;;;;;4899964;29;20494;-80
2021/09/25 03:29:04;;;;;;;1.00;0.60;;;16.80;1.00;;;;;;4899817;29;20494;-79
2021/09/25 03:31:32;;;;;;;0.90;0.50;;;16.80;1.00;;;;;;4898836;29;20430;-78
2021/09/25 03:34:04;;;;;;;1.20;0.70;;;16.80;1.00;;;;;;4898883;29;20445;-79
2021/09/25 03:36:32;;;;;;;1.47;0.60;;;16.80;1.00;;;;;;4899051;29;20415;-78
2021/09/25 03:39:01;;;;;;;0.90;0.50;;;16.90;1.00;;;;;;4902951;29;20427;-78
2021/09/25 03:41:30;;;;;;;1.40;0.60;;;16.90;1.00;;;;;;4902771;29;20446;-79
2021/09/25 03:43:58;;;;;;;1.03;0.87;;;16.90;1.00;;;;;;4902393;29;20432;-78
2021/09/25 03:46:27;;;;;;;1.00;0.80;;;16.90;1.00;;;;;;4902841;29;20423;-79
2021/09/25 03:48:55;;;;;;;1.83;0.70;;;16.90;1.00;;;;;;4902105;29;20469;-79
2021/09/25 03:51:23;;;;;;;1.10;0.83;;;16.90;1.00;;;;;;4902611;29;20401;-78
2021/09/25 03:53:52;;;;;;;1.00;0.70;;;16.90;1.00;;;;;;4901523;29;20486;-78
2021/09/25 03:56:21;;;;;;;1.70;1.43;;;16.80;1.00;;;;;;4902757;29;20429;-78
2021/09/25 03:58:50;;;;;;;1.60;0.87;;;16.90;1.00;;;;;;4902312;29;20386;-79
2021/09/25 04:01:18;;;;;;;0.87;0.60;;;16.90;1.00;;;;;;4902556;29;20413;-79
2021/09/25 04:03:46;;;;;;;0.90;0.50;;;16.90;1.00;;;;;;4901803;29;20482;-78
2021/09/25 04:06:15;;;;;;;1.10;0.97;;;16.80;1.00;;;;;;4902498;29;20409;-80
2021/09/25 04:08:43;;;;;;;3.47;1.23;;;16.80;1.00;;;;;;4902007;29;20466;-78
2021/09/25 04:11:12;;;;;;;1.87;1.77;;;16.80;99.90;;;;;;4901594;29;20447;-78
2021/09/25 04:13:41;;;;;;;0.80;0.40;;;16.70;99.90;;;;;;4900403;29;20450;-78
2021/09/25 04:16:09;;;;;;;0.93;0.73;;;16.50;99.90;;;;;;4901746;29;20419;-79
2021/09/25 04:18:37;;;;;;;1.10;0.60;;;16.50;99.90;;;;;;4901618;29;20401;-78
2021/09/25 04:21:06;;;;;;;2.17;0.73;;;16.50;99.90;;;;;;4901149;29;20411;-78
2021/09/25 04:23:36;;;;;;;1.93;1.73;;;16.40;99.90;;;;;;4901254;29;20469;-79
2021/09/25 04:26:04;;;;;;;0.90;0.50;;;16.40;99.90;;;;;;4901273;29;20412;-79
2021/09/25 04:28:32;;;;;;;0.80;0.50;;;16.20;99.90;;;;;;4901377;29;20441;-80
2021/09/25 04:31:02;;;;;;;0.80;0.40;;;16.10;99.90;;;;;;4901127;29;20804;-78
2021/09/25 04:33:30;;;;;;;1.67;0.80;;;16.10;99.90;;;;;;4900933;29;20402;-78
2021/09/25 04:35:58;;;;;;;2.00;1.90;;;16.10;99.90;;;;;;4906278;29;20394;-78
2021/09/25 04:38:26;;;;;;;1.23;0.87;;;16.10;99.90;;;;;;4917212;29;20438;-79
2021/09/25 04:40:54;;;;;;;1.17;1.07;;;16.10;99.90;;;;;;4918616;29;20514;-77
2021/09/25 04:43:22;;;;;;;1.33;1.23;;;16.00;99.90;;;;;;4917626;29;20413;-78
2021/09/25 04:45:50;;;;;;;1.77;1.17;;;16.10;99.90;;;;;;4918400;29;20397;-78
2021/09/25 04:48:20;;;;;;;1.47;1.37;;;16.00;99.90;;;;;;4916435;29;20493;-79
2021/09/25 04:50:48;;;;;;;1.33;1.23;;;15.90;99.90;;;;;;4908707;29;20423;-80
2021/09/25 04:53:16;;;;;;;1.00;0.70;;;15.90;99.90;;;;;;4903333;29;20401;-79
2021/09/25 04:55:45;;;;;;;1.60;1.50;;;15.90;99.90;;;;;;4904356;29;20514;-79
2021/09/25 04:58:14;;;;;;;1.90;1.80;;;15.80;99.90;;;;;;4902571;29;20424;-79
2021/09/25 05:00:42;;;;;;;4.20;1.47;;;15.70;99.90;;;;;;4900968;29;20488;-79
2021/09/25 05:03:10;;;;;;;1.00;0.60;;;15.70;99.90;;;;;;4901162;29;20491;-79
2021/09/25 05:05:40;;;;;;;1.40;0.80;;;15.60;99.90;;;;;;4900522;29;20805;-79
2021/09/25 05:08:08;;;;;;;1.53;0.70;;;15.60;99.90;;;;;;4899782;29;20450;-79
2021/09/25 05:10:36;;;;;;;0.90;0.70;;;15.60;99.90;;;;;;4908620;29;20989;-79
2021/09/25 05:13:04;;;;;;;0.90;0.70;;;15.60;99.90;;;;;;4909201;29;20989;-78
2021/09/25 05:15:32;;;;;;;2.27;1.20;;;15.70;99.90;;;;;;4907419;29;20441;-79
2021/09/25 05:18:01;;;;;;;1.60;0.70;;;15.70;99.90;;;;;;4899088;29;20533;-79
2021/09/25 05:20:29;;;;;;;0.97;0.73;;;15.70;99.90;;;;;;4900000;29;20445;-79
2021/09/25 05:22:58;;;;;;;0.90;0.50;;;15.70;99.90;;;;;;4901416;29;20421;-79
2021/09/25 05:25:26;;;;;;;1.40;0.63;;;15.80;99.90;;;;;;4901007;29;20493;-79
2021/09/25 05:27:54;;;;;;;1.83;1.07;;;15.80;99.90;;;;;;4901997;29;20423;-79
2021/09/25 05:30:23;;;;;;;0.90;0.60;;;15.80;99.90;;;;;;4899857;29;20936;-80
2021/09/25 05:32:51;;;;;;;1.00;0.50;;;15.80;99.90;;;;;;4900787;29;20404;-78
2021/09/25 05:35:19;;;;;;;0.90;0.53;;;15.90;99.90;;;;;;4900140;29;20473;-78
2021/09/25 05:37:47;;;;;;;1.10;0.80;;;15.90;99.90;;;;;;4902345;29;20456;-79
2021/09/25 05:40:17;;;;;;;1.00;0.70;;;16.00;99.90;;;;;;4901568;29;20458;-78
2021/09/25 05:42:45;;;;;;;1.20;1.00;;;16.10;99.90;;;;;;4900306;29;20407;-79
2021/09/25 05:45:16;;;;;;;0.80;0.53;;;16.10;99.90;;;;;;4898522;29;20466;-79
2021/09/25 05:47:44;;;;;;;1.03;0.60;;;16.10;99.90;;;;;;4902506;29;20510;-79
2021/09/25 05:50:14;;;;;;;1.00;0.53;;;16.10;99.90;;;;;;4903341;29;20484;-78
2021/09/25 05:52:42;;;;;;;1.53;1.17;;;16.10;99.90;;;;;;4903053;29;20401;-79
2021/09/25 05:55:11;;;;;;;0.80;0.50;;;16.00;99.90;;;;;;4899200;29;20448;-78
2021/09/25 05:57:43;;;;;;;0.80;0.50;;;16.10;99.90;;;;;;4900400;29;20762;-79
2021/09/25 06:00:12;;;;;;;1.93;0.73;;;16.10;99.90;;;;;;4899264;29;20469;-79
2021/09/25 06:02:42;;;;;;;0.80;0.40;;;16.10;99.90;;;;;;4899891;29;20496;-78
2021/09/25 06:05:11;;;;;;;1.57;1.47;;;16.30;99.90;;;;;;4899536;29;20872;-79
2021/09/25 06:07:40;;;;;;;1.93;0.73;;;16.30;99.90;;;;;;4898702;29;20414;-78
2021/09/25 06:10:09;;;;;;;1.80;1.07;;;16.40;99.90;;;;;;4898943;29;20476;-79
2021/09/25 06:12:37;;;;;;;3.10;1.13;;;16.50;99.90;;;;;;4898355;29;20492;-79
2021/09/25 06:15:12;;;;;;;1.17;0.90;;;16.50;99.90;;;;;;4899034;29;20799;-78
2021/09/25 06:17:41;;;;;;;1.00;0.60;;;16.50;99.90;;;;;;4899928;29;20389;-78
2021/09/25 06:20:11;;;;;;;0.80;0.40;;;16.70;99.90;;;;;;4907461;29;20406;-78
2021/09/25 06:22:40;;;;;;;3.17;0.93;;;16.70;99.90;;;;;;4905475;29;20792;-78
2021/09/25 06:25:09;;;;;;;3.83;0.70;;;16.70;99.90;;;;;;4904765;29;20429;-78
2021/09/25 06:27:38;;;;;;;4.20;1.20;;;16.80;99.90;;;;;;4901266;29;20491;-80
2021/09/25 06:30:09;;;;;;;1.73;0.97;;;16.80;99.90;;;;;;4902895;29;20468;-79
2021/09/25 06:32:38;;;;;;;1.43;1.33;;;16.90;99.90;;;;;;4918168;29;20454;-79
2021/09/25 06:35:10;;;;;;;3.10;1.30;;;16.90;99.90;;;;;;4917132;29;20440;-79
2021/09/25 06:37:40;;;;;;;0.90;0.50;;;17.00;99.90;;;;;;4917877;29;20458;-79
2021/09/25 06:40:24;;;;;;;0.90;0.60;;;17.10;99.90;;;;;;4919824;29;20427;-79
2021/09/25 06:42:53;;;;;;;1.07;0.70;;;17.20;99.90;;;;;;4910582;29;20442;-80
2021/09/25 06:45:23;;;;;;;1.77;0.77;;;17.30;99.90;;;;;;4902277;29;20487;-80
2021/09/25 06:47:51;;;;;;;1.20;1.10;;;17.40;99.90;;;;;;4901313;29;20435;-79
2021/09/25 06:50:19;;;;;;;1.33;1.23;;;17.40;99.90;;;;;;4900903;29;20459;-79
2021/09/25 06:52:47;;;;;;;1.00;0.50;;;17.50;99.90;;;;;;4901041;29;20816;-79
2021/09/25 06:55:15;;;;;;;0.90;0.50;;;17.60;99.90;;;;;;4901150;29;20454;-79
2021/09/25 06:57:44;;;;;;;1.37;0.60;;;17.60;99.90;;;;;;4900168;29;20429;-80
2021/09/25 07:00:13;;;;;;;1.33;1.00;;;17.90;99.90;;;;;;4900633;29;20399;-79
2021/09/25 07:02:42;;;;;;;0.93;0.50;;;17.90;99.90;;;;;;4900783;29;20418;-79
2021/09/25 07:05:12;;;;;;;8.43;1.20;;;18.00;99.90;;;;;;4899796;29;20429;-80
2021/09/25 07:07:40;;;;;;;1.50;1.40;;;17.90;99.90;;;;;;4898429;29;20402;-79
2021/09/25 07:10:11;;;;;;;1.87;1.00;;;17.90;99.90;;;;;;4900382;29;20462;-79
2021/09/25 07:12:39;;;;;;;2.40;2.20;;;17.90;99.90;;;;;;4902169;29;20436;-81
2021/09/25 07:15:08;;;;;;;1.30;0.93;;;17.90;99.90;;;;;;4905150;29;20433;-79
2021/09/25 07:17:37;;;;;;;0.90;0.60;;;17.70;99.90;;;;;;4905807;29;20426;-80
2021/09/25 07:20:08;;;;;;;1.37;0.93;;;17.70;99.90;;;;;;4904540;29;20476;-81
2021/09/25 07:22:37;;;;;;;1.10;0.57;;;17.90;99.90;;;;;;4901845;29;20409;-81
2021/09/25 07:25:06;;;;;;;1.00;0.73;;;18.10;99.90;;;;;;4903906;29;20446;-79
2021/09/25 07:27:34;;;;;;;2.60;1.00;;;18.20;99.90;;;;;;4904505;29;21054;-80
2021/09/25 07:30:03;;;;;;;1.37;0.73;;;18.40;99.90;;;;;;4904092;29;20464;-79
2021/09/25 07:32:34;;;;;;;1.20;1.10;;;18.70;99.90;;;;;;4901784;29;20536;-80
2021/09/25 07:35:02;;;;;;;1.00;0.53;;;18.70;99.90;;;;;;4922828;23;20854;-68
2021/09/25 07:37:33;;;;;;;0.90;0.53;;;18.70;99.90;;;;;;4890079;29;20570;-69
2021/09/25 07:40:02;;;;;;;1.80;1.00;;;18.60;99.90;;;;;;4898467;29;20872;-70
2021/09/25 07:42:30;;;;;;;1.60;0.97;;;18.60;99.90;;;;;;4917836;23;20505;-79
2021/09/25 07:44:59;;;;;;;1.67;1.23;;;18.50;99.90;;;;;;4905188;29;20424;-79
2021/09/25 07:47:27;;;;;;;0.90;0.53;;;18.40;99.90;;;;;;4906674;29;20454;-78
2021/09/25 07:49:55;;;;;;;1.33;0.80;;;18.40;99.90;;;;;;4914376;29;20446;-80
2021/09/25 07:52:23;;;;;;;1.00;0.70;;;18.40;99.90;;;;;;4918855;29;20441;-79
2021/09/25 07:54:52;;;;;;;1.27;0.77;;;18.60;99.90;;;;;;4916821;29;20470;-79
2021/09/25 07:57:21;;;;;;;1.37;0.60;;;18.60;99.90;;;;;;4917456;29;20474;-79
2021/09/25 07:59:49;;;;;;;1.20;0.73;;;18.70;99.90;;;;;;4913571;29;20401;-78
2021/09/25 08:02:17;;;;;;;0.97;0.63;;;18.70;99.90;;;;;;4915901;29;20429;-79
2021/09/25 08:04:45;;;;;;;6.73;2.00;;;18.80;99.90;;;;;;4914639;29;20458;-80
2021/09/25 08:07:13;;;;;;;1.00;0.80;;;18.80;99.90;;;;;;4911124;29;20437;-80
2021/09/25 08:09:41;;;;;;;0.90;0.53;;;18.90;99.90;;;;;;4910799;29;20417;-78
2021/09/25 08:12:13;;;;;;;1.10;0.50;;;19.10;99.90;;;;;;4914933;29;20466;-79
2021/09/25 08:14:41;;;;;;;2.03;0.90;;;19.20;99.90;;;;;;4916138;29;20448;-78
2021/09/25 08:17:09;;;;;;;0.90;0.50;;;19.20;99.90;;;;;;4916785;29;20418;-79
2021/09/25 08:19:37;;;;;;;1.33;0.73;;;19.30;99.90;;;;;;4907373;29;20438;-79
2021/09/25 08:22:06;;;;;;;3.03;2.80;;;19.40;99.90;;;;;;4907306;29;20422;-80
2021/09/25 08:24:34;;;;;;;1.63;0.70;;;19.50;99.90;;;;;;4906183;29;20458;-78
2021/09/25 08:27:02;;;;;;;3.03;1.63;;;19.60;99.90;;;;;;4904931;29;20473;-79
2021/09/25 08:29:32;;;;;;;1.93;1.33;;;19.60;99.90;;;;;;4905758;29;20381;-79
2021/09/25 08:32:00;;;;;;;1.10;0.60;;;19.30;99.90;;;;;;4905650;29;20452;-79
2021/09/25 08:34:28;;;;;;;2.10;1.87;;;19.10;99.90;;;;;;4905350;29;20466;-78
2021/09/25 08:36:56;;;;;;;2.03;0.90;;;19.30;99.90;;;;;;4904776;29;20449;-79
2021/09/25 08:39:25;;;;;;;1.43;1.33;;;19.00;99.90;;;;;;4901881;29;20508;-77
2021/09/25 08:41:54;;;;;;;1.47;1.13;;;18.90;99.90;;;;;;4897252;29;20425;-77
2021/09/25 08:44:22;;;;;;;2.00;0.87;;;18.90;99.90;;;;;;4884779;29;20536;-78
2021/09/25 08:46:53;;;;;;;2.07;1.50;;;19.00;99.90;;;;;;4899547;29;20432;-79
2021/09/25 08:49:21;;;;;;;1.20;0.60;;;18.80;99.90;;;;;;4904860;29;20825;-79
2021/09/25 08:51:50;;;;;;;1.10;0.70;;;18.70;99.90;;;;;;4904496;29;20490;-78
2021/09/25 08:54:18;;;;;;;2.33;2.00;;;18.50;99.90;;;;;;4904196;29;20425;-79
2021/09/25 08:56:46;;;;;;;0.90;0.60;;;18.50;99.90;;;;;;4905562;29;20397;-80
2021/09/25 08:59:14;;;;;;;1.17;0.70;;;18.70;99.90;;;;;;4905951;29;20389;-79
2021/09/25 09:01:44;;;;;;;1.30;0.50;;;18.90;99.90;;;;;;4905511;29;20892;-79
2021/09/25 09:04:14;;;;;;;1.00;0.60;;;19.10;99.90;;;;;;4902494;29;20497;-79
2021/09/25 09:06:47;;;;;;;2.53;1.43;;;19.00;99.90;;;;;;4903740;29;20416;-77
2021/09/25 09:09:15;;;;;;;1.00;0.80;;;18.80;99.90;;;;;;4904116;29;20415;-79
2021/09/25 09:11:46;;;;;;;1.83;1.50;;;18.90;99.90;;;;;;4905604;29;20527;-80
2021/09/25 09:14:15;;;;;;;4.90;3.67;;;18.90;99.90;;;;;;4904364;29;20442;-79
2021/09/25 09:16:55;;;;;;;1.00;0.50;;;18.90;99.90;;;;;;4905054;29;20397;-78
2021/09/25 09:19:25;;;;;;;1.73;1.30;;;18.80;99.90;;;;;;4904301;29;20450;-78
2021/09/25 09:21:53;;;;;;;0.90;0.53;;;18.60;99.90;;;;;;4904909;29;20435;-78
2021/09/25 09:24:21;;;;;;;1.10;0.70;;;18.70;99.90;;;;;;4903271;29;20460;-77
2021/09/25 09:26:49;;;;;;;2.33;0.83;;;18.70;99.90;;;;;;4901127;29;20896;-79
2021/09/25 09:29:18;;;;;;;1.67;1.03;;;18.90;99.90;;;;;;4902467;29;20422;-78
2021/09/25 09:31:55;;;;;;;1.30;1.17;;;18.80;99.90;;;;;;4901709;29;20479;-77
2021/09/25 09:34:35;;;;;;;1.60;0.90;;;18.70;99.90;;;;;;4901223;29;20435;-78
2021/09/25 09:37:12;;;;;;;1.20;1.07;;;18.60;99.90;;;;;;4902494;29;20421;-77
2021/09/25 09:39:40;;;;;;;1.67;0.87;;;18.60;99.90;;;;;;4900863;29;20794;-78
2021/09/25 09:42:09;;;;;;;3.73;2.30;;;18.70;99.90;;;;;;4900332;29;20485;-78
2021/09/25 09:44:38;;;;;;;1.70;0.87;;;18.80;99.90;;;;;;4901587;29;20896;-77
2021/09/25 09:47:09;;;;;;;0.93;0.57;;;18.70;99.90;;;;;;4903118;29;20765;-78
2021/09/25 09:49:42;;;;;;;1.20;0.80;;;18.60;99.90;;;;;;4903063;29;20411;-79
2021/09/25 09:52:11;;;;;;;1.10;0.77;;;18.30;99.90;;;;;;4903355;29;20548;-78
2021/09/25 09:54:41;;;;;;;1.93;1.20;;;18.30;99.90;;;;;;4905620;29;20425;-76
2021/09/25 09:57:12;;;;;;;1.00;0.60;;;18.30;99.90;;;;;;4906803;29;20412;-79
2021/09/25 09:59:42;;;;;;;1.07;0.97;;;18.50;99.90;;;;;;4908409;29;20405;-77
2021/09/25 10:02:11;;;;;;;5.23;1.87;;;18.60;99.90;;;;;;4909769;29;20509;-77
2021/09/25 10:04:41;;;;;;;1.20;0.70;;;18.60;99.90;;;;;;4906175;29;20468;-78
2021/09/25 10:07:10;;;;;;;1.40;0.90;;;18.40;99.90;;;;;;4906325;29;20518;-78
2021/09/25 10:09:41;;;;;;;1.20;0.60;;;18.30;99.90;;;;;;4904095;29;20407;-81
2021/09/25 10:12:11;;;;;;;1.50;1.40;;;18.10;99.90;;;;;;4901229;29;20512;-78
2021/09/25 10:14:42;;;;;;;1.00;0.90;;;18.10;99.90;;;;;;4899653;29;20441;-78
2021/09/25 10:17:13;;;;;;;2.03;1.53;;;18.10;99.90;;;;;;4899079;29;20844;-77
2021/09/25 10:19:45;;;;;;;0.90;0.50;;;18.20;99.90;;;;;;4902531;29;20425;-77
2021/09/25 10:22:15;;;;;;;2.03;0.70;;;18.40;99.90;;;;;;4901430;29;20427;-76
2021/09/25 10:24:46;;;;;;;1.20;0.70;;;18.90;99.90;;;;;;4900944;29;20446;-78
2021/09/25 10:27:16;;;;;;;1.10;0.83;;;19.10;99.90;;;;;;4902847;29;20854;-79
2021/09/25 10:29:45;;;;;;;1.80;1.43;;;19.50;99.90;;;;;;4900419;29;20785;-79
2021/09/25 10:32:23;;;;;;;1.17;1.07;;;19.70;99.90;;;;;;4898949;29;20464;-77
2021/09/25 10:35:15;;;;;;;1.73;1.63;;;20.00;99.90;;;;;;4899123;29;20482;-79
2021/09/25 10:37:45;;;;;;;1.20;0.60;;;20.30;99.90;;;;;;4898553;29;20428;-77
2021/09/25 10:40:40;;;;;;;2.47;1.73;;;20.40;99.90;;;;;;4899144;29;20981;-78
2021/09/25 10:43:18;;;;;;;1.20;1.00;;;20.40;99.90;;;;;;4886806;29;20410;-78
2021/09/25 10:45:49;;;;;;;1.20;0.77;;;20.60;99.90;;;;;;4884837;29;20917;-77
2021/09/25 10:48:26;;;;;;;1.53;0.97;;;20.70;99.90;;;;;;4890294;29;20416;-77
2021/09/25 10:50:59;;;;;;;2.60;1.17;;;20.70;99.90;;;;;;4908390;29;20497;-77
2021/09/25 10:53:32;;;;;;;1.10;0.60;;;20.60;99.90;;;;;;4918199;29;20464;-79
2021/09/25 10:56:07;;;;;;;3.30;1.03;;;20.70;99.90;;;;;;4917654;29;20495;-77
2021/09/25 10:58:38;;;;;;;1.80;1.10;;;20.60;99.90;;;;;;4916268;29;20419;-77
2021/09/25 11:01:09;;;;;;;1.00;0.63;;;20.60;99.90;;;;;;4916892;29;20839;-78
2021/09/25 11:03:58;;;;;;;1.40;0.90;;;20.90;99.90;;;;;;4916378;29;20433;-80
2021/09/25 11:06:32;;;;;;;1.17;0.60;;;21.20;99.90;;;;;;4915702;29;20394;-80
2021/09/25 11:09:02;;;;;;;3.60;1.30;;;21.30;99.90;;;;;;4915970;29;20571;-80
2021/09/25 11:11:39;;;;;;;1.33;0.83;;;21.30;99.90;;;;;;4914683;29;20405;-81
2021/09/25 11:14:22;;;;;;;2.13;1.40;;;21.40;99.90;;;;;;4916303;29;20405;-82
2021/09/25 11:17:02;;;;;;;1.40;1.30;;;21.50;99.90;;;;;;4911121;29;20450;-83
2021/09/25 11:19:42;;;;;;;1.93;1.33;;;21.80;99.90;;;;;;4914758;29;20430;-80
2021/09/25 11:22:16;;;;;;;2.13;1.57;;;21.70;99.90;;;;;;4914635;29;20409;-79
2021/09/25 11:24:47;;;;;;;1.40;0.70;;;21.80;99.90;;;;;;4913930;29;20454;-83
2021/09/25 11:27:17;;;;;;;1.20;0.67;;;21.90;99.90;;;;;;4915982;29;20405;-82
2021/09/25 11:30:01;;;;;;;1.43;1.33;;;21.90;99.90;;;;;;4911399;29;20809;-80
2021/09/25 11:32:31;;;;;;;1.93;1.70;;;22.10;99.90;;;;;;4909247;29;20545;-80
2021/09/25 11:35:01;;;;;;;1.20;0.87;;;22.00;99.90;;;;;;4909875;29;20525;-78
2021/09/25 11:37:31;;;;;;;1.67;0.90;;;21.40;99.90;;;;;;4909947;29;20405;-78
2021/09/25 11:40:02;;;;;;;1.00;0.60;;;20.80;99.90;;;;;;4907578;29;20397;-80
2021/09/25 11:42:31;;;;;;;1.80;1.53;;;20.30;99.90;;;;;;4905102;29;20443;-80
2021/09/25 11:45:02;;;;;;;1.87;1.20;;;19.80;99.90;;;;;;4905257;29;20821;-79
2021/09/25 11:47:33;;;;;;;1.10;0.63;;;19.80;99.90;;;;;;4905079;29;20434;-78
2021/09/25 11:50:12;;;;;;;1.93;1.17;;;20.00;99.90;;;;;;4912559;29;20446;-78
2021/09/25 11:52:43;;;;;;;1.20;0.60;;;20.30;99.90;;;;;;4913439;29;20441;-75
2021/09/25 11:55:13;;;;;;;2.13;0.90;;;20.70;99.90;;;;;;4911193;29;20471;-77
2021/09/25 11:57:46;;;;;;;1.30;1.20;;;21.00;99.90;;;;;;4905228;29;20461;-80
2021/09/25 12:00:24;;;;;;;1.20;0.77;;;21.20;99.90;;;;;;4905673;29;20916;-78
2021/09/25 12:02:54;;;;;;;1.10;0.83;;;21.20;99.90;;;;;;4906117;29;20408;-77
2021/09/25 12:05:29;;;;;;;2.73;2.53;;;21.40;99.90;;;;;;4904559;29;20447;-79
2021/09/25 12:08:00;;;;;;;1.83;1.70;;;21.60;99.90;;;;;;4905726;29;20397;-81
2021/09/25 12:10:30;;;;;;;1.80;1.33;;;21.60;99.90;;;;;;4906708;29;20393;-81
2021/09/25 12:13:02;;;;;;;2.07;1.43;;;21.80;99.90;;;;;;4905934;29;20823;-82
2021/09/25 12:15:33;;;;;;;1.47;1.03;;;21.60;99.90;;;;;;4906324;29;20429;-79
2021/09/25 12:18:14;;;;;;;1.60;0.67;;;21.30;99.90;;;;;;4905271;29;20491;-79
2021/09/25 12:20:45;;;;;;;1.30;1.20;;;21.10;99.90;;;;;;4906062;29;20397;-79
2021/09/25 12:23:18;;;;;;;1.00;0.60;;;21.00;99.90;;;;;;4905769;29;20432;-78
2021/09/25 12:25:47;;;;;;;1.60;1.13;;;21.30;99.90;;;;;;4906217;29;20432;-79
2021/09/25 12:28:33;;;;;;;2.20;2.00;;;21.40;99.90;;;;;;4906197;29;20489;-79
2021/09/25 12:31:04;;;;;;;1.83;0.80;;;21.70;99.90;;;;;;4906823;29;20426;-79
2021/09/25 12:33:33;;;;;;;1.10;0.83;;;21.30;99.90;;;;;;4905576;29;20448;-78
2021/09/25 12:36:04;;;;;;;1.47;0.90;;;21.20;99.90;;;;;;4905730;29;20453;-78
2021/09/25 12:38:36;;;;;;;1.10;0.70;;;20.90;99.90;;;;;;4906415;29;20434;-80
2021/09/25 12:41:09;;;;;;;1.83;1.60;;;20.80;99.90;;;;;;4905514;29;20405;-80
2021/09/25 12:43:42;;;;;;;1.67;1.10;;;20.70;99.90;;;;;;4905877;29;20398;-78
2021/09/25 12:46:16;;;;;;;1.40;1.27;;;20.80;99.90;;;;;;4909990;29;21043;-78
2021/09/25 12:49:22;;;;;;;1.10;0.73;;;20.90;99.90;;;;;;4911266;29;20419;-79
2021/09/25 12:51:53;;;;;;;1.37;1.07;;;21.10;99.90;;;;;;4905813;29;20409;-78
2021/09/25 12:54:25;;;;;;;1.00;0.50;;;21.10;99.90;;;;;;4905079;29;20480;-79
2021/09/25 12:56:56;;;;;;;1.47;0.93;;;21.10;99.90;;;;;;4905388;29;20782;-80
2021/09/25 12:59:28;;;;;;;1.33;1.23;;;21.30;99.90;;;;;;4904741;29;20430;-77
2021/09/25 13:01:56;;;;;;;1.10;0.70;;;21.60;99.90;;;;;;4905498;29;20514;-77